KDAB/DAB METAR and TAF weather

Enter ICAO airport designator
Station Type Date Time Source
KDAB METAR 2018/07/21 12:53 UTC NOAA

KDAB 211253Z 24008KT 10SM FEW007 SCT250 27/26 A2995 RMK AO2 SLP143 T02720261 $


Station Type Date Time Source
KDAB Decoded METAR 2018/07/21 12:53 UTC NOAA

DAYTONA BEACH INTERNATIONAL, FL, United States (KDAB) 29-10N 81-04W 9M
Jul 21, 2018 - 08:53 AM EDT / 2018.07.21 1253 UTC
Wind: from the WSW (240 degrees) at 9 MPH (8 KT):0
Visibility: 10 mile(s):0
Sky conditions: partly cloudy
Temperature: 81.0 F (27.2 C)
Dew Point: 79.0 F (26.1 C)
Relative Humidity: 93%
Pressure (altimeter): 29.95 in. Hg (1014 hPa)
ob: KDAB 211253Z 24008KT 10SM FEW007 SCT250 27/26 A2995 RMK AO2 SLP143 T02720261
cycle: 13

Station Type Date Time Source
KDAB TAF 2018/07/21 12:31 UTC NOAA

TAF KDAB 211124Z 2112/2212 20006KT P6SM SCT150 SCT250
FM211500 21007KT P6SM VCSH SCT025 BKN250
FM211700 23012KT P6SM VCTS SCT035CB BKN060
TEMPO 2117/2120 3SM TSRA BKN030CB
FM212300 21007KT P6SM FEW040 SCT080 BKN150


Example: see airport list